sensor_id;sensor_type;location;lat;lon;timestamp;P1;durP1;ratioP1;P2;durP2;ratioP2
29452;SDS011;16424;50.956;5.320;2023-03-14T00:02:09;2.33;;;1.08;;
29452;SDS011;16424;50.956;5.320;2023-03-14T00:04:35;3.67;;;1.02;;
29452;SDS011;16424;50.956;5.320;2023-03-14T00:07:03;7.53;;;1.30;;
29452;SDS011;16424;50.956;5.320;2023-03-14T00:09:28;6.82;;;1.35;;
29452;SDS011;16424;50.956;5.320;2023-03-14T00:11:55;3.80;;;1.17;;
29452;SDS011;16424;50.956;5.320;2023-03-14T00:14:21;10.00;;;1.58;;
29452;SDS011;16424;50.956;5.320;2023-03-14T00:16:46;3.58;;;1.20;;
29452;SDS011;16424;50.956;5.320;2023-03-14T00:19:12;6.65;;;1.25;;
29452;SDS011;16424;50.956;5.320;2023-03-14T00:21:37;3.67;;;1.27;;
29452;SDS011;16424;50.956;5.320;2023-03-14T00:24:03;6.63;;;1.10;;
29452;SDS011;16424;50.956;5.320;2023-03-14T00:26:29;6.50;;;1.10;;
29452;SDS011;16424;50.956;5.320;2023-03-14T00:28:55;11.55;;;2.03;;
29452;SDS011;16424;50.956;5.320;2023-03-14T00:31:21;7.45;;;1.60;;
29452;SDS011;16424;50.956;5.320;2023-03-14T00:33:46;4.43;;;0.98;;
29452;SDS011;16424;50.956;5.320;2023-03-14T00:36:14;5.70;;;1.35;;
29452;SDS011;16424;50.956;5.320;2023-03-14T00:38:41;8.32;;;1.23;;
29452;SDS011;16424;50.956;5.320;2023-03-14T00:41:09;3.78;;;0.85;;
29452;SDS011;16424;50.956;5.320;2023-03-14T00:43:36;5.25;;;1.10;;
29452;SDS011;16424;50.956;5.320;2023-03-14T00:46:02;5.20;;;1.30;;
29452;SDS011;16424;50.956;5.320;2023-03-14T00:48:28;5.00;;;0.75;;
29452;SDS011;16424;50.956;5.320;2023-03-14T00:50:54;4.47;;;1.20;;
29452;SDS011;16424;50.956;5.320;2023-03-14T00:53:19;3.60;;;1.13;;
29452;SDS011;16424;50.956;5.320;2023-03-14T00:55:45;7.32;;;1.20;;
29452;SDS011;16424;50.956;5.320;2023-03-14T00:58:11;3.67;;;1.33;;
29452;SDS011;16424;50.956;5.320;2023-03-14T01:00:39;5.10;;;1.83;;
29452;SDS011;16424;50.956;5.320;2023-03-14T01:03:05;5.90;;;1.35;;
29452;SDS011;16424;50.956;5.320;2023-03-14T01:05:31;5.60;;;1.45;;
29452;SDS011;16424;50.956;5.320;2023-03-14T01:07:57;4.75;;;1.65;;
29452;SDS011;16424;50.956;5.320;2023-03-14T01:10:23;8.48;;;2.08;;
29452;SDS011;16424;50.956;5.320;2023-03-14T01:12:48;9.63;;;1.77;;
29452;SDS011;16424;50.956;5.320;2023-03-14T01:15:14;7.35;;;1.40;;
29452;SDS011;16424;50.956;5.320;2023-03-14T01:17:40;3.33;;;1.05;;
29452;SDS011;16424;50.956;5.320;2023-03-14T01:20:07;10.38;;;1.50;;
29452;SDS011;16424;50.956;5.320;2023-03-14T01:22:35;9.20;;;1.88;;
29452;SDS011;16424;50.956;5.320;2023-03-14T01:25:01;6.55;;;1.50;;
29452;SDS011;16424;50.956;5.320;2023-03-14T01:27:29;8.82;;;1.92;;
29452;SDS011;16424;50.956;5.320;2023-03-14T01:29:55;14.35;;;2.83;;
29452;SDS011;16424;50.956;5.320;2023-03-14T01:32:20;8.80;;;1.83;;
29452;SDS011;16424;50.956;5.320;2023-03-14T01:34:46;8.40;;;2.03;;
29452;SDS011;16424;50.956;5.320;2023-03-14T01:37:12;6.60;;;1.30;;
29452;SDS011;16424;50.956;5.320;2023-03-14T01:39:37;9.68;;;1.42;;
29452;SDS011;16424;50.956;5.320;2023-03-14T01:42:03;7.88;;;1.73;;
29452;SDS011;16424;50.956;5.320;2023-03-14T01:44:46;10.95;;;1.67;;
29452;SDS011;16424;50.956;5.320;2023-03-14T01:47:18;8.60;;;1.73;;
29452;SDS011;16424;50.956;5.320;2023-03-14T01:49:44;10.35;;;1.90;;
29452;SDS011;16424;50.956;5.320;2023-03-14T01:52:22;12.07;;;2.45;;
29452;SDS011;16424;50.956;5.320;2023-03-14T01:55:12;7.43;;;1.45;;
29452;SDS011;16424;50.956;5.320;2023-03-14T01:57:41;10.02;;;2.30;;
29452;SDS011;16424;50.956;5.320;2023-03-14T02:00:15;10.80;;;1.85;;
29452;SDS011;16424;50.956;5.320;2023-03-14T02:02:44;14.10;;;2.03;;
29452;SDS011;16424;50.956;5.320;2023-03-14T02:05:32;7.72;;;1.80;;
29452;SDS011;16424;50.956;5.320;2023-03-14T02:08:00;15.75;;;3.75;;
29452;SDS011;16424;50.956;5.320;2023-03-14T02:10:27;12.00;;;2.00;;
29452;SDS011;16424;50.956;5.320;2023-03-14T02:12:56;10.25;;;2.58;;
29452;SDS011;16424;50.956;5.320;2023-03-14T02:15:25;10.45;;;2.33;;
29452;SDS011;16424;50.956;5.320;2023-03-14T02:17:51;11.98;;;2.47;;
29452;SDS011;16424;50.956;5.320;2023-03-14T02:22:53;14.15;;;1.70;;
29452;SDS011;16424;50.956;5.320;2023-03-14T02:28:23;10.23;;;2.15;;
29452;SDS011;16424;50.956;5.320;2023-03-14T02:30:49;9.75;;;1.98;;
29452;SDS011;16424;50.956;5.320;2023-03-14T02:33:16;10.02;;;2.53;;
29452;SDS011;16424;50.956;5.320;2023-03-14T02:40:58;9.75;;;2.30;;
29452;SDS011;16424;50.956;5.320;2023-03-14T02:43:24;14.25;;;2.88;;
29452;SDS011;16424;50.956;5.320;2023-03-14T02:45:51;15.15;;;2.33;;
29452;SDS011;16424;50.956;5.320;2023-03-14T02:50:59;6.47;;;1.60;;
29452;SDS011;16424;50.956;5.320;2023-03-14T02:53:29;10.77;;;2.95;;
29452;SDS011;16424;50.956;5.320;2023-03-14T02:55:56;7.15;;;1.85;;
29452;SDS011;16424;50.956;5.320;2023-03-14T02:58:23;12.05;;;1.73;;
29452;SDS011;16424;50.956;5.320;2023-03-14T03:00:49;13.30;;;2.55;;
29452;SDS011;16424;50.956;5.320;2023-03-14T03:03:15;8.73;;;1.73;;
29452;SDS011;16424;50.956;5.320;2023-03-14T03:05:41;7.75;;;2.35;;
29452;SDS011;16424;50.956;5.320;2023-03-14T03:08:10;3.72;;;1.33;;
29452;SDS011;16424;50.956;5.320;2023-03-14T03:10:36;8.18;;;1.85;;
29452;SDS011;16424;50.956;5.320;2023-03-14T03:13:01;3.05;;;0.80;;
29452;SDS011;16424;50.956;5.320;2023-03-14T03:15:27;4.57;;;0.90;;
29452;SDS011;16424;50.956;5.320;2023-03-14T03:17:53;3.65;;;0.80;;
29452;SDS011;16424;50.956;5.320;2023-03-14T03:20:19;3.50;;;0.52;;
29452;SDS011;16424;50.956;5.320;2023-03-14T03:22:44;5.13;;;1.35;;
29452;SDS011;16424;50.956;5.320;2023-03-14T03:25:10;2.25;;;0.80;;
29452;SDS011;16424;50.956;5.320;2023-03-14T03:27:36;6.07;;;1.10;;
29452;SDS011;16424;50.956;5.320;2023-03-14T03:30:05;4.05;;;0.98;;
29452;SDS011;16424;50.956;5.320;2023-03-14T03:32:32;4.40;;;1.00;;
29452;SDS011;16424;50.956;5.320;2023-03-14T03:34:57;2.53;;;0.95;;
29452;SDS011;16424;50.956;5.320;2023-03-14T03:37:23;4.65;;;1.13;;
29452;SDS011;16424;50.956;5.320;2023-03-14T03:39:52;4.55;;;1.10;;
29452;SDS011;16424;50.956;5.320;2023-03-14T03:42:19;9.50;;;1.50;;
29452;SDS011;16424;50.956;5.320;2023-03-14T03:44:45;6.70;;;1.77;;
29452;SDS011;16424;50.956;5.320;2023-03-14T03:47:10;11.82;;;1.77;;
29452;SDS011;16424;50.956;5.320;2023-03-14T03:49:36;7.57;;;1.67;;
29452;SDS011;16424;50.956;5.320;2023-03-14T03:52:02;6.53;;;1.50;;
29452;SDS011;16424;50.956;5.320;2023-03-14T03:54:27;9.15;;;2.65;;
29452;SDS011;16424;50.956;5.320;2023-03-14T03:56:56;9.25;;;1.45;;
29452;SDS011;16424;50.956;5.320;2023-03-14T03:59:22;17.48;;;2.20;;
29452;SDS011;16424;50.956;5.320;2023-03-14T04:01:47;7.55;;;1.90;;
29452;SDS011;16424;50.956;5.320;2023-03-14T04:04:13;10.23;;;2.00;;
29452;SDS011;16424;50.956;5.320;2023-03-14T04:06:39;11.48;;;2.20;;
29452;SDS011;16424;50.956;5.320;2023-03-14T04:09:08;12.75;;;2.97;;
29452;SDS011;16424;50.956;5.320;2023-03-14T04:11:35;7.70;;;2.10;;
29452;SDS011;16424;50.956;5.320;2023-03-14T04:14:02;7.80;;;1.95;;
29452;SDS011;16424;50.956;5.320;2023-03-14T04:16:28;10.38;;;2.40;;
29452;SDS011;16424;50.956;5.320;2023-03-14T04:18:56;11.93;;;3.08;;
29452;SDS011;16424;50.956;5.320;2023-03-14T04:21:22;9.02;;;2.70;;
29452;SDS011;16424;50.956;5.320;2023-03-14T04:23:48;12.85;;;2.38;;
29452;SDS011;16424;50.956;5.320;2023-03-14T04:26:14;13.10;;;2.08;;
29452;SDS011;16424;50.956;5.320;2023-03-14T04:28:40;10.45;;;1.83;;
29452;SDS011;16424;50.956;5.320;2023-03-14T04:31:07;10.40;;;2.28;;
29452;SDS011;16424;50.956;5.320;2023-03-14T04:33:34;15.05;;;2.42;;
29452;SDS011;16424;50.956;5.320;2023-03-14T04:36:01;9.85;;;1.65;;
29452;SDS011;16424;50.956;5.320;2023-03-14T04:38:27;5.05;;;1.63;;
29452;SDS011;16424;50.956;5.320;2023-03-14T04:40:52;7.15;;;1.75;;
29452;SDS011;16424;50.956;5.320;2023-03-14T04:43:18;4.97;;;0.98;;
29452;SDS011;16424;50.956;5.320;2023-03-14T04:45:44;3.15;;;1.00;;
29452;SDS011;16424;50.956;5.320;2023-03-14T04:48:09;5.32;;;1.35;;
29452;SDS011;16424;50.956;5.320;2023-03-14T04:50:35;5.32;;;1.30;;
29452;SDS011;16424;50.956;5.320;2023-03-14T04:53:01;3.55;;;0.70;;
29452;SDS011;16424;50.956;5.320;2023-03-14T04:55:26;2.58;;;1.33;;
29452;SDS011;16424;50.956;5.320;2023-03-14T04:57:52;2.92;;;0.77;;
29452;SDS011;16424;50.956;5.320;2023-03-14T05:00:18;4.72;;;0.80;;
29452;SDS011;16424;50.956;5.320;2023-03-14T05:02:44;6.47;;;0.90;;
29452;SDS011;16424;50.956;5.320;2023-03-14T05:05:09;3.28;;;0.80;;
29452;SDS011;16424;50.956;5.320;2023-03-14T05:07:35;5.03;;;0.82;;
29452;SDS011;16424;50.956;5.320;2023-03-14T05:10:01;2.78;;;1.40;;
29452;SDS011;16424;50.956;5.320;2023-03-14T05:12:27;5.60;;;0.80;;
29452;SDS011;16424;50.956;5.320;2023-03-14T05:14:53;5.07;;;0.73;;
29452;SDS011;16424;50.956;5.320;2023-03-14T05:17:18;2.72;;;0.75;;
29452;SDS011;16424;50.956;5.320;2023-03-14T05:19:44;3.10;;;1.00;;
29452;SDS011;16424;50.956;5.320;2023-03-14T05:22:10;2.00;;;0.73;;
29452;SDS011;16424;50.956;5.320;2023-03-14T05:24:37;3.45;;;0.65;;
29452;SDS011;16424;50.956;5.320;2023-03-14T05:27:03;3.63;;;0.57;;
29452;SDS011;16424;50.956;5.320;2023-03-14T05:29:29;2.72;;;0.60;;
29452;SDS011;16424;50.956;5.320;2023-03-14T05:31:55;2.25;;;0.60;;
29452;SDS011;16424;50.956;5.320;2023-03-14T05:34:20;3.22;;;0.65;;
29452;SDS011;16424;50.956;5.320;2023-03-14T05:36:46;3.63;;;1.27;;
29452;SDS011;16424;50.956;5.320;2023-03-14T05:39:12;1.38;;;0.60;;
29452;SDS011;16424;50.956;5.320;2023-03-14T05:41:37;2.35;;;0.60;;
29452;SDS011;16424;50.956;5.320;2023-03-14T05:44:03;1.65;;;0.60;;
29452;SDS011;16424;50.956;5.320;2023-03-14T05:46:29;4.85;;;1.00;;
29452;SDS011;16424;50.956;5.320;2023-03-14T05:48:58;1.40;;;0.90;;
29452;SDS011;16424;50.956;5.320;2023-03-14T05:51:24;2.33;;;1.00;;
29452;SDS011;16424;50.956;5.320;2023-03-14T05:53:50;2.17;;;1.23;;
29452;SDS011;16424;50.956;5.320;2023-03-14T05:56:16;2.20;;;1.27;;
29452;SDS011;16424;50.956;5.320;2023-03-14T05:58:42;2.35;;;1.80;;
29452;SDS011;16424;50.956;5.320;2023-03-14T06:01:08;3.95;;;1.73;;
29452;SDS011;16424;50.956;5.320;2023-03-14T06:03:34;3.22;;;2.22;;
29452;SDS011;16424;50.956;5.320;2023-03-14T06:06:00;3.13;;;1.80;;
29452;SDS011;16424;50.956;5.320;2023-03-14T06:08:25;3.88;;;1.90;;
29452;SDS011;16424;50.956;5.320;2023-03-14T06:10:52;3.50;;;2.10;;
29452;SDS011;16424;50.956;5.320;2023-03-14T06:13:18;2.78;;;1.98;;
29452;SDS011;16424;50.956;5.320;2023-03-14T06:15:44;2.75;;;1.83;;
29452;SDS011;16424;50.956;5.320;2023-03-14T06:18:10;3.15;;;2.22;;
29452;SDS011;16424;50.956;5.320;2023-03-14T06:20:37;2.72;;;2.03;;
29452;SDS011;16424;50.956;5.320;2023-03-14T06:23:06;2.80;;;1.80;;
29452;SDS011;16424;50.956;5.320;2023-03-14T06:25:33;3.42;;;2.10;;
29452;SDS011;16424;50.956;5.320;2023-03-14T06:28:00;3.20;;;1.90;;
29452;SDS011;16424;50.956;5.320;2023-03-14T06:30:26;3.38;;;1.65;;
29452;SDS011;16424;50.956;5.320;2023-03-14T06:32:52;3.08;;;1.92;;
29452;SDS011;16424;50.956;5.320;2023-03-14T06:35:18;2.88;;;1.50;;
29452;SDS011;16424;50.956;5.320;2023-03-14T06:37:44;3.22;;;1.70;;
29452;SDS011;16424;50.956;5.320;2023-03-14T06:40:10;1.92;;;1.20;;
29452;SDS011;16424;50.956;5.320;2023-03-14T06:42:45;2.75;;;1.50;;
29452;SDS011;16424;50.956;5.320;2023-03-14T06:45:11;3.03;;;1.15;;
29452;SDS011;16424;50.956;5.320;2023-03-14T06:47:38;2.22;;;1.52;;
29452;SDS011;16424;50.956;5.320;2023-03-14T06:50:05;3.20;;;1.60;;
29452;SDS011;16424;50.956;5.320;2023-03-14T06:52:32;2.35;;;0.98;;
29452;SDS011;16424;50.956;5.320;2023-03-14T06:54:58;3.10;;;1.17;;
29452;SDS011;16424;50.956;5.320;2023-03-14T06:57:24;3.90;;;1.40;;
29452;SDS011;16424;50.956;5.320;2023-03-14T06:59:50;6.82;;;1.90;;
29452;SDS011;16424;50.956;5.320;2023-03-14T07:02:16;2.03;;;1.50;;
29452;SDS011;16424;50.956;5.320;2023-03-14T07:04:41;3.80;;;1.27;;
29452;SDS011;16424;50.956;5.320;2023-03-14T07:07:07;3.50;;;1.13;;
29452;SDS011;16424;50.956;5.320;2023-03-14T07:09:33;5.57;;;1.08;;
29452;SDS011;16424;50.956;5.320;2023-03-14T07:11:59;3.90;;;1.33;;
29452;SDS011;16424;50.956;5.320;2023-03-14T07:14:25;3.05;;;1.17;;
29452;SDS011;16424;50.956;5.320;2023-03-14T07:16:51;4.35;;;1.38;;
29452;SDS011;16424;50.956;5.320;2023-03-14T07:19:17;2.22;;;1.20;;
29452;SDS011;16424;50.956;5.320;2023-03-14T07:21:42;2.85;;;1.10;;
29452;SDS011;16424;50.956;5.320;2023-03-14T07:24:08;2.30;;;1.30;;
29452;SDS011;16424;50.956;5.320;2023-03-14T07:26:34;3.90;;;1.40;;
29452;SDS011;16424;50.956;5.320;2023-03-14T07:29:00;2.80;;;1.10;;
29452;SDS011;16424;50.956;5.320;2023-03-14T07:31:28;4.85;;;1.85;;
29452;SDS011;16424;50.956;5.320;2023-03-14T07:33:54;3.17;;;1.50;;
29452;SDS011;16424;50.956;5.320;2023-03-14T07:36:20;3.47;;;1.20;;
29452;SDS011;16424;50.956;5.320;2023-03-14T07:38:46;1.85;;;1.42;;
29452;SDS011;16424;50.956;5.320;2023-03-14T07:41:11;4.88;;;1.60;;
29452;SDS011;16424;50.956;5.320;2023-03-14T07:43:37;2.50;;;1.80;;
29452;SDS011;16424;50.956;5.320;2023-03-14T07:46:03;3.67;;;1.90;;
29452;SDS011;16424;50.956;5.320;2023-03-14T07:48:29;4.03;;;1.83;;
29452;SDS011;16424;50.956;5.320;2023-03-14T07:50:55;3.70;;;1.58;;
29452;SDS011;16424;50.956;5.320;2023-03-14T07:53:21;2.28;;;1.10;;
29452;SDS011;16424;50.956;5.320;2023-03-14T07:55:47;1.33;;;0.50;;
29452;SDS011;16424;50.956;5.320;2023-03-14T07:58:13;2.22;;;0.55;;
29452;SDS011;16424;50.956;5.320;2023-03-14T08:00:39;0.75;;;0.75;;
29452;SDS011;16424;50.956;5.320;2023-03-14T08:03:05;2.45;;;1.10;;
29452;SDS011;16424;50.956;5.320;2023-03-14T08:05:33;1.00;;;1.00;;
29452;SDS011;16424;50.956;5.320;2023-03-14T08:08:00;4.55;;;1.33;;
29452;SDS011;16424;50.956;5.320;2023-03-14T08:10:25;1.35;;;1.25;;
29452;SDS011;16424;50.956;5.320;2023-03-14T08:12:56;3.08;;;1.50;;
29452;SDS011;16424;50.956;5.320;2023-03-14T08:15:24;2.65;;;1.55;;
29452;SDS011;16424;50.956;5.320;2023-03-14T08:17:51;2.30;;;1.50;;
29452;SDS011;16424;50.956;5.320;2023-03-14T08:20:18;4.05;;;1.83;;
29452;SDS011;16424;50.956;5.320;2023-03-14T08:22:48;3.35;;;2.22;;
29452;SDS011;16424;50.956;5.320;2023-03-14T08:25:14;2.53;;;2.17;;
29452;SDS011;16424;50.956;5.320;2023-03-14T08:27:40;2.25;;;2.03;;
29452;SDS011;16424;50.956;5.320;2023-03-14T08:30:07;9.02;;;2.40;;
29452;SDS011;16424;50.956;5.320;2023-03-14T08:32:35;5.13;;;2.40;;
29452;SDS011;16424;50.956;5.320;2023-03-14T08:35:01;3.85;;;2.28;;
29452;SDS011;16424;50.956;5.320;2023-03-14T08:37:26;2.97;;;2.30;;
29452;SDS011;16424;50.956;5.320;2023-03-14T08:39:52;3.72;;;1.90;;
29452;SDS011;16424;50.956;5.320;2023-03-14T08:42:18;2.80;;;1.83;;
29452;SDS011;16424;50.956;5.320;2023-03-14T08:44:44;6.90;;;2.20;;
29452;SDS011;16424;50.956;5.320;2023-03-14T08:47:10;4.72;;;1.90;;
29452;SDS011;16424;50.956;5.320;2023-03-14T08:49:36;2.60;;;2.00;;
29452;SDS011;16424;50.956;5.320;2023-03-14T08:52:03;3.35;;;2.00;;
29452;SDS011;16424;50.956;5.320;2023-03-14T08:54:30;6.07;;;1.73;;
29452;SDS011;16424;50.956;5.320;2023-03-14T08:56:56;2.80;;;1.80;;
29452;SDS011;16424;50.956;5.320;2023-03-14T08:59:22;5.53;;;1.80;;
29452;SDS011;16424;50.956;5.320;2023-03-14T09:01:48;4.35;;;1.58;;
29452;SDS011;16424;50.956;5.320;2023-03-14T09:04:14;5.75;;;1.80;;
29452;SDS011;16424;50.956;5.320;2023-03-14T09:06:40;4.25;;;1.50;;
29452;SDS011;16424;50.956;5.320;2023-03-14T09:09:06;6.93;;;1.80;;
29452;SDS011;16424;50.956;5.320;2023-03-14T09:11:32;2.70;;;1.48;;
29452;SDS011;16424;50.956;5.320;2023-03-14T09:13:58;4.43;;;1.50;;
29452;SDS011;16424;50.956;5.320;2023-03-14T09:16:23;2.83;;;1.50;;
29452;SDS011;16424;50.956;5.320;2023-03-14T09:18:49;6.40;;;1.40;;
29452;SDS011;16424;50.956;5.320;2023-03-14T09:21:18;3.83;;;1.92;;
29452;SDS011;16424;50.956;5.320;2023-03-14T09:23:43;7.35;;;2.28;;
29452;SDS011;16424;50.956;5.320;2023-03-14T09:26:10;5.03;;;1.77;;
29452;SDS011;16424;50.956;5.320;2023-03-14T09:28:36;4.38;;;2.08;;
29452;SDS011;16424;50.956;5.320;2023-03-14T09:31:05;3.03;;;1.90;;
29452;SDS011;16424;50.956;5.320;2023-03-14T09:33:33;6.13;;;1.80;;
29452;SDS011;16424;50.956;5.320;2023-03-14T09:35:59;3.60;;;1.58;;
29452;SDS011;16424;50.956;5.320;2023-03-14T09:38:25;3.92;;;2.03;;
29452;SDS011;16424;50.956;5.320;2023-03-14T09:40:51;3.67;;;2.05;;
29452;SDS011;16424;50.956;5.320;2023-03-14T09:43:19;8.93;;;1.90;;
29452;SDS011;16424;50.956;5.320;2023-03-14T09:45:47;4.93;;;1.80;;
29452;SDS011;16424;50.956;5.320;2023-03-14T09:48:15;8.20;;;2.58;;
29452;SDS011;16424;50.956;5.320;2023-03-14T09:50:51;3.83;;;2.10;;
29452;SDS011;16424;50.956;5.320;2023-03-14T09:53:26;7.20;;;2.42;;
29452;SDS011;16424;50.956;5.320;2023-03-14T09:55:57;4.60;;;2.63;;
29452;SDS011;16424;50.956;5.320;2023-03-14T09:58:24;5.47;;;2.83;;
29452;SDS011;16424;50.956;5.320;2023-03-14T10:00:52;7.88;;;3.00;;
29452;SDS011;16424;50.956;5.320;2023-03-14T10:03:38;5.15;;;2.42;;
29452;SDS011;16424;50.956;5.320;2023-03-14T10:06:13;2.90;;;2.33;;
29452;SDS011;16424;50.956;5.320;2023-03-14T10:08:40;6.65;;;2.30;;
29452;SDS011;16424;50.956;5.320;2023-03-14T10:11:10;3.28;;;1.92;;
29452;SDS011;16424;50.956;5.320;2023-03-14T10:16:22;3.00;;;1.60;;
29452;SDS011;16424;50.956;5.320;2023-03-14T10:18:58;4.07;;;1.17;;
29452;SDS011;16424;50.956;5.320;2023-03-14T10:21:28;3.03;;;1.40;;
29452;SDS011;16424;50.956;5.320;2023-03-14T10:24:06;1.88;;;1.10;;
29452;SDS011;16424;50.956;5.320;2023-03-14T10:26:43;2.55;;;1.30;;
29452;SDS011;16424;50.956;5.320;2023-03-14T10:29:12;4.72;;;1.52;;
29452;SDS011;16424;50.956;5.320;2023-03-14T10:31:51;4.07;;;1.70;;
29452;SDS011;16424;50.956;5.320;2023-03-14T10:34:21;4.30;;;1.70;;
29452;SDS011;16424;50.956;5.320;2023-03-14T10:36:52;3.35;;;2.38;;
29452;SDS011;16424;50.956;5.320;2023-03-14T10:42:03;2.25;;;1.27;;
29452;SDS011;16424;50.956;5.320;2023-03-14T10:44:36;1.73;;;1.40;;
29452;SDS011;16424;50.956;5.320;2023-03-14T10:47:03;7.28;;;1.90;;
29452;SDS011;16424;50.956;5.320;2023-03-14T10:49:34;4.18;;;1.48;;
29452;SDS011;16424;50.956;5.320;2023-03-14T10:54:50;4.10;;;1.30;;
29452;SDS011;16424;50.956;5.320;2023-03-14T10:57:23;3.45;;;1.15;;
29452;SDS011;16424;50.956;5.320;2023-03-14T10:59:50;2.80;;;1.00;;
29452;SDS011;16424;50.956;5.320;2023-03-14T11:02:30;2.65;;;1.35;;
29452;SDS011;16424;50.956;5.320;2023-03-14T11:05:30;2.17;;;1.00;;
29452;SDS011;16424;50.956;5.320;2023-03-14T11:11:32;2.47;;;0.90;;
29452;SDS011;16424;50.956;5.320;2023-03-14T11:19:49;3.97;;;1.10;;
29452;SDS011;16424;50.956;5.320;2023-03-14T11:22:41;3.50;;;1.00;;
29452;SDS011;16424;50.956;5.320;2023-03-14T11:25:21;3.70;;;1.10;;
29452;SDS011;16424;50.956;5.320;2023-03-14T11:30:35;3.95;;;1.42;;
29452;SDS011;16424;50.956;5.320;2023-03-14T11:33:23;2.33;;;1.00;;
29452;SDS011;16424;50.956;5.320;2023-03-14T11:35:55;2.85;;;1.30;;
29452;SDS011;16424;50.956;5.320;2023-03-14T11:38:47;4.55;;;1.27;;
29452;SDS011;16424;50.956;5.320;2023-03-14T11:41:16;2.95;;;1.25;;
29452;SDS011;16424;50.956;5.320;2023-03-14T11:44:10;2.00;;;1.10;;
29452;SDS011;16424;50.956;5.320;2023-03-14T11:49:23;5.00;;;1.42;;
29452;SDS011;16424;50.956;5.320;2023-03-14T11:52:00;3.67;;;1.23;;
29452;SDS011;16424;50.956;5.320;2023-03-14T11:57:14;4.20;;;1.27;;
29452;SDS011;16424;50.956;5.320;2023-03-14T12:02:33;7.63;;;1.60;;
29452;SDS011;16424;50.956;5.320;2023-03-14T12:10:24;4.28;;;1.50;;
29452;SDS011;16424;50.956;5.320;2023-03-14T12:12:49;4.28;;;2.33;;
29452;SDS011;16424;50.956;5.320;2023-03-14T12:15:19;4.95;;;1.38;;
29452;SDS011;16424;50.956;5.320;2023-03-14T12:17:47;5.63;;;1.88;;
29452;SDS011;16424;50.956;5.320;2023-03-14T12:20:23;1.38;;;1.23;;
29452;SDS011;16424;50.956;5.320;2023-03-14T12:25:24;2.78;;;1.20;;
29452;SDS011;16424;50.956;5.320;2023-03-14T12:30:25;8.27;;;1.42;;
29452;SDS011;16424;50.956;5.320;2023-03-14T12:35:44;10.38;;;2.50;;
29452;SDS011;16424;50.956;5.320;2023-03-14T12:43:46;5.03;;;1.67;;
29452;SDS011;16424;50.956;5.320;2023-03-14T12:48:48;9.00;;;1.73;;
29452;SDS011;16424;50.956;5.320;2023-03-14T12:51:34;8.50;;;1.80;;
29452;SDS011;16424;50.956;5.320;2023-03-14T12:57:08;13.13;;;2.70;;
29452;SDS011;16424;50.956;5.320;2023-03-14T12:59:55;13.77;;;2.72;;
29452;SDS011;16424;50.956;5.320;2023-03-14T13:02:29;23.75;;;3.50;;
29452;SDS011;16424;50.956;5.320;2023-03-14T13:05:03;13.90;;;2.65;;
29452;SDS011;16424;50.956;5.320;2023-03-14T13:07:38;11.60;;;2.75;;
29452;SDS011;16424;50.956;5.320;2023-03-14T13:10:24;11.02;;;2.80;;
29452;SDS011;16424;50.956;5.320;2023-03-14T13:15:53;15.52;;;2.60;;
29452;SDS011;16424;50.956;5.320;2023-03-14T13:18:27;17.50;;;4.07;;
29452;SDS011;16424;50.956;5.320;2023-03-14T13:23:40;16.55;;;2.47;;
29452;SDS011;16424;50.956;5.320;2023-03-14T13:26:09;23.00;;;2.85;;
29452;SDS011;16424;50.956;5.320;2023-03-14T13:28:40;23.40;;;3.28;;
29452;SDS011;16424;50.956;5.320;2023-03-14T13:31:12;9.95;;;2.30;;
29452;SDS011;16424;50.956;5.320;2023-03-14T13:33:58;11.88;;;2.20;;
29452;SDS011;16424;50.956;5.320;2023-03-14T13:36:31;17.75;;;3.58;;
29452;SDS011;16424;50.956;5.320;2023-03-14T13:38:59;14.88;;;2.92;;
29452;SDS011;16424;50.956;5.320;2023-03-14T13:41:26;13.95;;;2.95;;
29452;SDS011;16424;50.956;5.320;2023-03-14T13:43:56;14.45;;;2.70;;
29452;SDS011;16424;50.956;5.320;2023-03-14T13:46:30;18.83;;;2.88;;
29452;SDS011;16424;50.956;5.320;2023-03-14T13:49:01;18.65;;;2.85;;
29452;SDS011;16424;50.956;5.320;2023-03-14T13:51:28;14.50;;;2.92;;
29452;SDS011;16424;50.956;5.320;2023-03-14T13:53:57;16.95;;;3.25;;
29452;SDS011;16424;50.956;5.320;2023-03-14T13:56:25;19.77;;;2.42;;
29452;SDS011;16424;50.956;5.320;2023-03-14T13:58:53;16.15;;;2.40;;
29452;SDS011;16424;50.956;5.320;2023-03-14T14:01:32;17.20;;;3.15;;
29452;SDS011;16424;50.956;5.320;2023-03-14T14:04:13;27.45;;;4.30;;
29452;SDS011;16424;50.956;5.320;2023-03-14T14:06:44;16.50;;;2.20;;
29452;SDS011;16424;50.956;5.320;2023-03-14T14:09:31;25.65;;;3.17;;
29452;SDS011;16424;50.956;5.320;2023-03-14T14:12:04;12.45;;;3.17;;
29452;SDS011;16424;50.956;5.320;2023-03-14T14:14:36;21.73;;;3.95;;
29452;SDS011;16424;50.956;5.320;2023-03-14T14:17:26;10.68;;;2.55;;
29452;SDS011;16424;50.956;5.320;2023-03-14T14:20:00;11.50;;;2.55;;
29452;SDS011;16424;50.956;5.320;2023-03-14T14:22:28;11.68;;;2.65;;
29452;SDS011;16424;50.956;5.320;2023-03-14T14:24:55;8.77;;;1.80;;
29452;SDS011;16424;50.956;5.320;2023-03-14T14:27:27;9.45;;;2.00;;
29452;SDS011;16424;50.956;5.320;2023-03-14T14:30:01;13.27;;;1.77;;
29452;SDS011;16424;50.956;5.320;2023-03-14T14:32:39;10.13;;;1.85;;
29452;SDS011;16424;50.956;5.320;2023-03-14T14:35:05;7.50;;;2.42;;
29452;SDS011;16424;50.956;5.320;2023-03-14T14:37:40;5.47;;;1.75;;
29452;SDS011;16424;50.956;5.320;2023-03-14T14:40:08;6.15;;;1.50;;
29452;SDS011;16424;50.956;5.320;2023-03-14T14:42:43;5.60;;;1.58;;
29452;SDS011;16424;50.956;5.320;2023-03-14T14:45:13;8.80;;;1.88;;
29452;SDS011;16424;50.956;5.320;2023-03-14T14:47:51;7.07;;;2.72;;
29452;SDS011;16424;50.956;5.320;2023-03-14T14:56:03;9.23;;;2.25;;
29452;SDS011;16424;50.956;5.320;2023-03-14T14:58:48;9.60;;;2.40;;
29452;SDS011;16424;50.956;5.320;2023-03-14T15:03:45;9.88;;;1.73;;
29452;SDS011;16424;50.956;5.320;2023-03-14T15:06:14;6.25;;;2.17;;
29452;SDS011;16424;50.956;5.320;2023-03-14T15:08:42;10.98;;;2.17;;
29452;SDS011;16424;50.956;5.320;2023-03-14T15:11:10;11.75;;;2.67;;
29452;SDS011;16424;50.956;5.320;2023-03-14T15:13:42;7.55;;;1.88;;
29452;SDS011;16424;50.956;5.320;2023-03-14T15:16:11;7.95;;;1.88;;
29452;SDS011;16424;50.956;5.320;2023-03-14T15:18:37;8.90;;;1.85;;
29452;SDS011;16424;50.956;5.320;2023-03-14T15:21:03;6.78;;;1.67;;
29452;SDS011;16424;50.956;5.320;2023-03-14T15:23:29;12.73;;;3.30;;
29452;SDS011;16424;50.956;5.320;2023-03-14T15:25:55;10.50;;;2.00;;
29452;SDS011;16424;50.956;5.320;2023-03-14T15:28:21;7.45;;;1.70;;
29452;SDS011;16424;50.956;5.320;2023-03-14T15:30:49;10.27;;;1.88;;
29452;SDS011;16424;50.956;5.320;2023-03-14T15:33:16;13.02;;;2.05;;
29452;SDS011;16424;50.956;5.320;2023-03-14T15:35:42;7.22;;;1.70;;
29452;SDS011;16424;50.956;5.320;2023-03-14T15:38:11;11.52;;;1.98;;
29452;SDS011;16424;50.956;5.320;2023-03-14T15:40:39;12.80;;;1.67;;
29452;SDS011;16424;50.956;5.320;2023-03-14T15:43:05;8.50;;;1.80;;
29452;SDS011;16424;50.956;5.320;2023-03-14T15:45:31;7.75;;;1.40;;
29452;SDS011;16424;50.956;5.320;2023-03-14T15:47:56;6.40;;;1.17;;
29452;SDS011;16424;50.956;5.320;2023-03-14T15:50:22;7.57;;;1.38;;
29452;SDS011;16424;50.956;5.320;2023-03-14T15:52:50;11.48;;;1.88;;
29452;SDS011;16424;50.956;5.320;2023-03-14T15:55:16;9.10;;;1.60;;
29452;SDS011;16424;50.956;5.320;2023-03-14T15:57:45;9.68;;;1.60;;
29452;SDS011;16424;50.956;5.320;2023-03-14T16:00:15;6.97;;;1.20;;
29452;SDS011;16424;50.956;5.320;2023-03-14T16:02:43;7.40;;;1.30;;
29452;SDS011;16424;50.956;5.320;2023-03-14T16:05:10;14.32;;;1.75;;
29452;SDS011;16424;50.956;5.320;2023-03-14T16:07:37;9.18;;;1.55;;
29452;SDS011;16424;50.956;5.320;2023-03-14T16:10:03;8.50;;;1.83;;
29452;SDS011;16424;50.956;5.320;2023-03-14T16:12:30;10.00;;;1.80;;
29452;SDS011;16424;50.956;5.320;2023-03-14T16:14:56;9.65;;;1.73;;